createdAt,value
2019-02-19T00:00:46.082Z,73.35
2019-02-19T00:01:55.284Z,73.25
2019-02-19T00:03:05.498Z,73.15
2019-02-19T00:04:15.204Z,73.35
2019-02-19T00:05:24.963Z,73.44
2019-02-19T00:06:34.705Z,73.35
2019-02-19T00:07:44.421Z,73.35
2019-02-19T00:08:53.888Z,73.15
2019-02-19T00:10:03.594Z,73.25
2019-02-19T00:11:13.333Z,73.44
2019-02-19T00:12:23.044Z,72.96
2019-02-19T00:13:33.031Z,73.15
2019-02-19T00:14:42.790Z,73.25
2019-02-19T00:15:52.504Z,72.92
2019-02-19T00:17:01.769Z,72.92
2019-02-19T00:18:11.761Z,73.15
2019-02-19T00:19:21.723Z,73.25
2019-02-19T00:20:31.430Z,73.11
2019-02-19T00:21:41.166Z,73.15
2019-02-19T00:22:51.153Z,73.25
2019-02-19T00:24:01.144Z,73.21
2019-02-19T00:25:10.606Z,73.21
2019-02-19T00:26:20.372Z,73.21
2019-02-19T00:27:29.845Z,73.21
2019-02-19T00:28:39.307Z,73.02
2019-02-19T00:29:49.020Z,73.02
2019-02-19T00:30:58.724Z,72.92
2019-02-19T00:32:08.728Z,73.11
2019-02-19T00:33:18.698Z,73.11
2019-02-19T00:34:28.446Z,73.11
2019-02-19T00:35:38.415Z,73.11
2019-02-19T00:36:48.152Z,73.11
2019-02-19T00:37:57.872Z,72.92
2019-02-19T00:39:08.971Z,73.02
2019-02-19T00:40:18.953Z,73.11
2019-02-19T00:41:28.671Z,73.11
2019-02-19T00:42:38.149Z,73.21
2019-02-19T00:43:47.599Z,73.41
2019-02-19T00:44:57.612Z,73.41
2019-02-19T00:46:07.089Z,73.21
2019-02-19T00:47:16.604Z,73.41
2019-02-19T00:48:26.560Z,73.69
2019-02-19T00:49:36.034Z,73.21
2019-02-19T00:50:45.542Z,73.31
2019-02-19T00:51:54.760Z,73.6
2019-02-19T00:53:04.538Z,73.6
2019-02-19T00:54:14.010Z,73.5
2019-02-19T00:55:23.465Z,73.5
2019-02-19T00:56:32.942Z,73.6
2019-02-19T00:57:42.651Z,73.41
2019-02-19T00:58:52.360Z,73.6
2019-02-19T01:00:02.076Z,73.31
2019-02-19T01:01:11.812Z,73.69
2019-02-19T01:02:21.771Z,73.21
2019-02-19T01:03:31.761Z,73.31
2019-02-19T01:04:41.489Z,73.5
2019-02-19T01:05:51.182Z,73.41
2019-02-19T01:07:00.911Z,73.41
2019-02-19T01:08:10.668Z,73.5
2019-02-19T01:09:20.648Z,73.41
2019-02-19T01:10:30.364Z,73.79
2019-02-19T01:11:39.565Z,73.6
2019-02-19T01:15:29.688Z,73.88
2019-02-19T01:16:39.148Z,74.27
2019-02-19T01:17:48.381Z,73.88
2019-02-19T01:18:58.341Z,74.37
2019-02-19T01:20:08.272Z,74.17
2019-02-19T01:21:17.219Z,74.08
2019-02-19T01:22:26.902Z,74.17
2019-02-19T01:23:36.844Z,74.17
2019-02-19T01:24:46.534Z,74.08
2019-02-19T01:25:56.224Z,74.08
2019-02-19T01:27:06.163Z,74.17
2019-02-19T01:28:15.611Z,74.08
2019-02-19T01:29:25.309Z,74.08
2019-02-19T01:30:34.755Z,74.27
2019-02-19T01:31:44.440Z,74.08
2019-02-19T01:32:54.382Z,74.08
2019-02-19T01:34:03.842Z,73.98
2019-02-19T01:35:13.553Z,73.88
2019-02-19T01:36:23.508Z,73.79
2019-02-19T01:37:33.203Z,73.88
2019-02-19T01:38:42.647Z,74.08
2019-02-19T01:39:52.342Z,74.08
2019-02-19T01:41:02.034Z,73.98
2019-02-19T01:42:11.227Z,74.17
2019-02-19T01:43:20.673Z,73.79
2019-02-19T01:44:30.615Z,73.98
2019-02-19T01:45:40.303Z,74.17
2019-02-19T01:46:50.243Z,74.17
2019-02-19T01:47:59.940Z,73.88
2019-02-19T01:49:09.631Z,74.08
2019-02-19T01:50:19.572Z,73.98
2019-02-19T01:51:29.513Z,74.08
2019-02-19T01:52:38.977Z,74.08
2019-02-19T01:53:48.480Z,73.88
2019-02-19T01:54:58.463Z,74.27
2019-02-19T01:56:08.398Z,74.17
2019-02-19T01:57:18.092Z,72.92
2019-02-19T01:58:28.024Z,72.99
2019-02-19T01:59:37.223Z,73.79
2019-02-19T02:00:46.669Z,73.79
2019-02-19T02:01:56.385Z,73.85
2019-02-19T02:03:06.085Z,73.69
2019-02-19T02:04:15.523Z,73.79
2019-02-19T02:05:25.461Z,73.56
2019-02-19T02:06:35.145Z,73.79
2019-02-19T02:07:44.828Z,74.08
2019-02-19T02:08:54.765Z,73.88
2019-02-19T02:10:04.217Z,74.04
2019-02-19T02:11:14.172Z,73.75
2019-02-19T02:12:23.632Z,74.13
2019-02-19T02:13:33.078Z,73.79
2019-02-19T02:14:42.534Z,73.69
2019-02-19T02:15:51.979Z,73.85
2019-02-19T02:17:01.422Z,73.75
2019-02-19T02:18:11.369Z,73.66
2019-02-19T02:19:20.805Z,74.04
2019-02-19T02:20:30.253Z,73.37
2019-02-19T02:21:40.197Z,73.46
2019-02-19T02:22:50.144Z,73.85
2019-02-19T02:23:59.602Z,73.56
2019-02-19T02:25:09.596Z,73.46
2019-02-19T02:26:19.304Z,73.98
2019-02-19T02:27:29.014Z,74.04
2019-02-19T02:28:38.456Z,74.13
2019-02-19T02:29:48.142Z,73.85
2019-02-19T02:30:57.583Z,74.04
2019-02-19T02:32:07.055Z,73.85
2019-02-19T02:33:16.741Z,73.94
2019-02-19T02:34:26.194Z,74.04
2019-02-19T02:35:35.902Z,73.75
2019-02-19T02:36:45.852Z,73.85
2019-02-19T02:37:55.314Z,74.04
2019-02-19T02:39:05.012Z,74.04
2019-02-19T02:40:14.962Z,74.04
2019-02-19T02:41:24.661Z,74.04
2019-02-19T02:42:34.392Z,73.85
2019-02-19T02:43:44.119Z,73.94
2019-02-19T02:44:53.809Z,74.13
2019-02-19T02:46:03.796Z,74.04
2019-02-19T02:47:13.804Z,73.94
2019-02-19T02:48:23.759Z,73.94
2019-02-19T02:49:33.469Z,73.75
2019-02-19T02:50:43.412Z,74.13
2019-02-19T02:51:53.360Z,73.94
2019-02-19T02:53:03.306Z,73.94
2019-02-19T02:54:13.243Z,73.66
2019-02-19T02:55:22.953Z,73.66
2019-02-19T02:56:32.646Z,73.56
2019-02-19T02:57:42.336Z,74.04
2019-02-19T02:58:52.283Z,74.23
2019-02-19T03:00:01.970Z,74.52
2019-02-19T03:01:11.723Z,74.52
2019-02-19T03:02:21.673Z,74.13
2019-02-19T03:03:31.381Z,74.23
2019-02-19T03:04:41.075Z,74.04
2019-02-19T03:05:50.777Z,73.85
2019-02-19T03:07:00.732Z,73.66
2019-02-19T03:08:10.435Z,74.43
2019-02-19T03:09:19.871Z,74.62
2019-02-19T03:10:29.301Z,74.43
2019-02-19T03:11:39.320Z,74.43
2019-02-19T03:12:48.779Z,74.43
2019-02-19T03:13:58.749Z,74.13
2019-02-19T03:15:08.721Z,74.23
2019-02-19T03:16:18.684Z,74.43
2019-02-19T03:17:28.132Z,74.23
2019-02-19T03:18:38.080Z,74.71
2019-02-19T03:19:48.069Z,74.71
2019-02-19T03:20:57.512Z,74.52
2019-02-19T03:22:07.195Z,74.62
2019-02-19T03:23:16.892Z,74.62
2019-02-19T03:24:26.826Z,75
2019-02-19T03:25:36.286Z,74.9
2019-02-19T03:26:45.978Z,74.9
2019-02-19T03:27:55.918Z,75.2
2019-02-19T03:29:05.873Z,75.1
2019-02-19T03:30:15.854Z,75
2019-02-19T03:31:25.595Z,75.29
2019-02-19T03:32:35.320Z,75.38
2019-02-19T03:33:45.033Z,75.57
2019-02-19T03:34:55.017Z,75.29
2019-02-19T03:36:04.970Z,75.38
2019-02-19T03:37:14.922Z,75.48
2019-02-19T03:38:24.872Z,75.57
2019-02-19T03:39:34.575Z,75.38
2019-02-19T03:40:44.556Z,75.48
2019-02-19T03:41:54.263Z,75.38
2019-02-19T03:43:03.952Z,75.57
2019-02-19T03:44:13.902Z,75.48
2019-02-19T03:45:23.360Z,75.29
2019-02-19T03:46:33.073Z,75.48
2019-02-19T03:47:42.761Z,75.38
2019-02-19T03:48:52.488Z,75.48
2019-02-19T03:50:02.041Z,75.48
2019-02-19T03:51:11.490Z,75.2
2019-02-19T03:52:21.219Z,75.29
2019-02-19T03:53:30.936Z,75.57
2019-02-19T03:54:40.624Z,75.48
2019-02-19T03:55:50.567Z,75.48
2019-02-19T03:57:00.280Z,75.57
2019-02-19T03:58:10.229Z,75.48
2019-02-19T03:59:20.009Z,75.87
2019-02-19T04:00:29.962Z,75.57
2019-02-19T04:01:39.662Z,75.48
2019-02-19T04:02:49.622Z,75.57
2019-02-19T04:03:59.584Z,75.67
2019-02-19T04:05:09.317Z,75.57
2019-02-19T04:06:18.774Z,75.1
2019-02-19T04:07:28.743Z,75.29
2019-02-19T04:08:38.686Z,75.29
2019-02-19T04:09:48.381Z,75.67
2019-02-19T04:10:58.093Z,75.29
2019-02-19T04:12:07.789Z,75.38
2019-02-19T04:13:17.749Z,75.38
2019-02-19T04:14:27.179Z,75.38
2019-02-19T04:15:36.632Z,75.48
2019-02-19T04:16:46.643Z,75.57
2019-02-19T04:17:56.586Z,75.29
2019-02-19T04:19:06.534Z,75.57
2019-02-19T04:20:16.486Z,75.38
2019-02-19T04:21:26.176Z,75.57
2019-02-19T04:22:35.871Z,75.1
2019-02-19T04:23:45.601Z,75.1
2019-02-19T04:24:55.545Z,75.2
2019-02-19T04:26:05.303Z,75.38
2019-02-19T04:27:16.947Z,75.38
2019-02-19T04:28:26.634Z,75.2
2019-02-19T04:29:36.587Z,75.38
2019-02-19T04:30:46.319Z,75.29
2019-02-19T04:31:56.310Z,75.38
2019-02-19T04:33:06.254Z,75.29
2019-02-19T04:34:16.195Z,75.29
2019-02-19T04:35:25.894Z,75.29
2019-02-19T04:36:35.839Z,75.57
2019-02-19T04:37:45.311Z,75.38
2019-02-19T04:38:55.004Z,75.67
2019-02-19T04:40:04.974Z,75.38
2019-02-19T04:41:14.669Z,75.38
2019-02-19T04:42:24.122Z,75.38
2019-02-19T04:43:34.059Z,75.57
2019-02-19T04:44:44.000Z,75.45
2019-02-19T04:45:53.707Z,75.57
2019-02-19T04:47:03.160Z,75.38
2019-02-19T04:48:13.137Z,75.57
2019-02-19T04:49:22.585Z,76.06
2019-02-19T04:50:32.535Z,76.25
2019-02-19T04:51:41.992Z,76.15
2019-02-19T04:52:51.963Z,75.96
2019-02-19T04:54:01.415Z,76.15
2019-02-19T04:55:10.850Z,76.44
2019-02-19T04:56:20.555Z,76.15
2019-02-19T04:57:31.690Z,76.25
2019-02-19T04:58:41.413Z,76.15
2019-02-19T04:59:51.394Z,76.06
2019-02-19T05:01:01.337Z,75.96
2019-02-19T05:02:11.273Z,75.96
2019-02-19T05:03:20.703Z,75.57
2019-02-19T05:04:30.135Z,75.57
2019-02-19T05:05:39.838Z,75.45
2019-02-19T05:06:49.528Z,75.48
2019-02-19T05:07:59.228Z,75.45
2019-02-19T05:09:08.929Z,75.25
2019-02-19T05:10:18.386Z,75.54
2019-02-19T05:11:28.078Z,75.25
2019-02-19T05:12:37.520Z,75.35
2019-02-19T05:13:46.953Z,75.48
2019-02-19T05:14:56.659Z,74.96
2019-02-19T05:16:06.115Z,74.77
2019-02-19T05:17:16.421Z,75.2
2019-02-19T05:18:25.942Z,74.9
2019-02-19T05:19:35.146Z,74.81
2019-02-19T05:20:45.084Z,74.87
2019-02-19T05:21:55.031Z,74.58
2019-02-19T05:23:04.724Z,74.96
2019-02-19T05:24:14.927Z,74.68
2019-02-19T05:25:24.366Z,74.77
2019-02-19T05:26:33.594Z,75
2019-02-19T05:27:43.542Z,74.77
2019-02-19T05:28:53.510Z,74.71
2019-02-19T05:30:03.208Z,75.15
2019-02-19T05:31:12.409Z,74.71
2019-02-19T05:32:22.120Z,74.96
2019-02-19T05:33:32.055Z,74.96
2019-02-19T05:34:41.492Z,75.15
2019-02-19T05:35:50.485Z,74.96
2019-02-19T05:37:00.174Z,74.29
2019-02-19T05:38:10.135Z,74.01
2019-02-19T05:39:19.839Z,73.72
2019-02-19T05:40:29.330Z,74.1
2019-02-19T05:41:38.762Z,73.52
2019-02-19T05:42:48.233Z,73.52
2019-02-19T05:43:57.946Z,73.43
2019-02-19T05:45:07.891Z,73.81
2019-02-19T05:46:17.838Z,73.24
2019-02-19T05:47:27.790Z,73.43
2019-02-19T05:48:37.841Z,73.52
2019-02-19T05:49:47.777Z,73.04
2019-02-19T05:50:57.478Z,73.43
2019-02-19T05:52:06.920Z,73.52
2019-02-19T05:53:16.631Z,73.52
2019-02-19T05:54:26.590Z,74.19
2019-02-19T05:55:36.591Z,74.1
2019-02-19T05:56:46.051Z,74.19
2019-02-19T05:57:55.311Z,73.91
2019-02-19T05:59:05.025Z,74.1
2019-02-19T06:00:15.002Z,73.91
2019-02-19T06:01:24.710Z,73.81
2019-02-19T06:02:34.404Z,74.48
2019-02-19T06:03:44.101Z,74.48
2019-02-19T06:04:53.285Z,74.39
2019-02-19T06:06:03.236Z,74.48
2019-02-19T06:07:12.924Z,74.39
2019-02-19T06:08:22.889Z,74.48
2019-02-19T06:09:32.339Z,74.39
2019-02-19T06:10:43.991Z,74.48
2019-02-19T06:11:54.192Z,74.48
2019-02-19T06:13:04.139Z,75.15
2019-02-19T06:14:14.073Z,74.58
2019-02-19T06:15:24.036Z,74.48
2019-02-19T06:16:33.736Z,74.58
2019-02-19T06:17:43.685Z,75.06
2019-02-19T06:18:53.625Z,75.45
2019-02-19T06:20:03.603Z,75.06
2019-02-19T06:21:13.560Z,75.15
2019-02-19T06:22:23.265Z,75.15
2019-02-19T06:23:32.974Z,75.54
2019-02-19T06:24:42.440Z,75.15
2019-02-19T06:25:52.159Z,75.25
2019-02-19T06:27:01.777Z,74.77
2019-02-19T06:28:11.490Z,74.39
2019-02-19T06:29:21.428Z,74.96
2019-02-19T06:30:31.375Z,74.96
2019-02-19T06:31:41.073Z,74.96
2019-02-19T06:32:50.515Z,74.96
2019-02-19T06:34:00.461Z,75.15
2019-02-19T06:35:10.437Z,74.58
2019-02-19T06:36:20.148Z,74.1
2019-02-19T06:37:29.603Z,74.39
2019-02-19T06:38:39.569Z,74.48
2019-02-19T06:39:49.019Z,73.81
2019-02-19T06:40:58.203Z,73.91
2019-02-19T06:42:09.133Z,74.1
2019-02-19T06:43:18.830Z,73.72
2019-02-19T06:44:28.515Z,73.91
2019-02-19T06:45:37.953Z,74.01
2019-02-19T06:46:47.884Z,73.72
2019-02-19T06:47:57.854Z,74.01
2019-02-19T06:49:07.804Z,73.81
2019-02-19T06:50:17.747Z,73.91
2019-02-19T06:51:27.514Z,74.1
2019-02-19T06:52:37.442Z,73.91
2019-02-19T06:53:46.892Z,73.52
2019-02-19T06:54:56.875Z,74.01
2019-02-19T06:56:06.577Z,73.62
2019-02-19T06:57:16.013Z,74.1
2019-02-19T06:58:25.963Z,74.1
2019-02-19T06:59:35.653Z,73.91
2019-02-19T07:00:45.334Z,73.72
2019-02-19T07:01:55.019Z,74.01
2019-02-19T07:03:04.706Z,73.91
2019-02-19T07:04:14.647Z,74.1
2019-02-19T07:05:24.341Z,74.01
2019-02-19T07:06:33.801Z,74.01
2019-02-19T07:07:43.273Z,73.81
2019-02-19T07:08:52.959Z,73.72
2019-02-19T07:10:02.428Z,73.91
2019-02-19T07:11:12.116Z,73.91
2019-02-19T07:12:21.817Z,74.1
2019-02-19T07:13:31.517Z,73.72
2019-02-19T07:14:41.207Z,74.01
2019-02-19T07:15:50.433Z,73.81
2019-02-19T07:17:00.372Z,73.81
2019-02-19T07:18:18.306Z,74.01
2019-02-19T07:19:28.557Z,73.91
2019-02-19T07:20:38.253Z,73.81
2019-02-19T07:21:48.196Z,73.81
2019-02-19T07:22:57.160Z,73.72
2019-02-19T07:24:07.240Z,73.91
2019-02-19T07:25:17.178Z,73.72
2019-02-19T07:26:27.165Z,73.91
2019-02-19T07:27:37.141Z,74.19
2019-02-19T07:28:46.577Z,74.01
2019-02-19T07:29:55.764Z,73.72
2019-02-19T07:31:05.704Z,73.91
2019-02-19T07:32:15.670Z,73.81
2019-02-19T07:33:25.352Z,73.81
2019-02-19T07:34:35.370Z,73.91
2019-02-19T07:35:46.017Z,73.62
2019-02-19T07:36:55.970Z,73.72
2019-02-19T07:38:05.671Z,74.01
2019-02-19T07:39:15.370Z,73.91
2019-02-19T07:40:25.314Z,73.81
2019-02-19T07:41:34.747Z,74.01
2019-02-19T07:42:44.454Z,74.01
2019-02-19T07:43:54.256Z,74.01
2019-02-19T07:45:04.214Z,74.01
2019-02-19T07:46:14.150Z,73.91
2019-02-19T07:47:27.178Z,74.01
2019-02-19T07:48:36.869Z,73.72
2019-02-19T07:49:46.112Z,73.81
2019-02-19T07:50:55.558Z,74.01
2019-02-19T07:52:05.504Z,73.72
2019-02-19T07:53:15.451Z,73.81
2019-02-19T07:54:25.411Z,73.52
2019-02-19T07:55:35.454Z,74.01
2019-02-19T07:56:45.151Z,74.01
2019-02-19T07:57:54.899Z,74.01
2019-02-19T07:59:04.840Z,73.72
2019-02-19T08:00:14.278Z,73.81
2019-02-19T08:01:23.975Z,73.72
2019-02-19T08:02:33.674Z,74.01
2019-02-19T08:03:43.365Z,73.81
2019-02-19T08:04:53.055Z,73.81
2019-02-19T08:06:02.495Z,73.91
2019-02-19T08:07:12.439Z,74.01
2019-02-19T08:08:22.390Z,73.81
2019-02-19T08:09:32.347Z,74.01
2019-02-19T08:10:42.035Z,74.1
2019-02-19T08:11:51.729Z,73.72
2019-02-19T08:13:01.173Z,73.81
2019-02-19T08:14:10.887Z,74.1
2019-02-19T08:15:20.850Z,73.81
2019-02-19T08:16:30.563Z,74.01
2019-02-19T08:17:40.272Z,74.01
2019-02-19T08:18:50.254Z,73.62
2019-02-19T08:20:00.460Z,73.91
2019-02-19T08:21:18.539Z,73.81
2019-02-19T08:22:28.632Z,73.91
2019-02-19T08:23:38.328Z,73.62
2019-02-19T08:24:47.514Z,73.72
2019-02-19T08:25:57.207Z,73.81
2019-02-19T08:27:06.671Z,73.81
2019-02-19T08:28:16.375Z,76.12
2019-02-19T08:29:25.812Z,80.05
2019-02-19T08:30:35.272Z,83.22
2019-02-19T08:31:44.973Z,83.31
2019-02-19T08:32:54.916Z,83.07
2019-02-19T08:34:04.867Z,83.54
2019-02-19T08:35:14.558Z,83.84
2019-02-19T08:36:24.494Z,83.74
2019-02-19T08:37:34.598Z,83.54
2019-02-19T08:38:45.526Z,83.16
2019-02-19T08:39:55.215Z,82.97
2019-02-19T08:41:04.670Z,82.78
2019-02-19T08:42:14.620Z,83.36
2019-02-19T08:43:24.109Z,82.87
2019-02-19T08:44:33.302Z,83.16
2019-02-19T08:45:42.745Z,82.78
2019-02-19T08:46:51.949Z,82.43
2019-02-19T08:48:01.395Z,82.43
2019-02-19T08:49:10.581Z,82.15
2019-02-19T08:50:20.275Z,82.34
2019-02-19T08:51:29.733Z,81.96
2019-02-19T08:52:39.429Z,81.76
2019-02-19T08:53:49.367Z,82.05
2019-02-19T08:54:59.353Z,81.57
2019-02-19T08:56:08.809Z,81.38
2019-02-19T08:57:18.755Z,81.57
2019-02-19T08:58:28.711Z,81.09
2019-02-19T08:59:38.657Z,81.09
2019-02-19T09:00:48.351Z,81.09
2019-02-19T09:01:58.049Z,80.13
2019-02-19T09:03:07.991Z,80.9
2019-02-19T09:04:19.737Z,80.61
2019-02-19T09:05:29.695Z,80.32
2019-02-19T09:06:39.638Z,80.61
2019-02-19T09:07:49.148Z,80.47
2019-02-19T09:08:58.836Z,80.28
2019-02-19T09:10:08.782Z,80.19
2019-02-19T09:11:18.479Z,80.47
2019-02-19T09:12:28.180Z,80.09
2019-02-19T09:13:37.869Z,79.8
2019-02-19T09:14:49.212Z,79.61
2019-02-19T09:15:59.372Z,79.42
2019-02-19T09:17:09.373Z,80.09
2019-02-19T09:18:19.317Z,79.9
2019-02-19T09:19:29.079Z,79.99
2019-02-19T09:20:39.336Z,79.8
2019-02-19T09:21:49.101Z,79.42
2019-02-19T09:22:59.057Z,80.09
2019-02-19T09:24:12.087Z,79.9
2019-02-19T09:25:21.627Z,79.61
2019-02-19T09:26:31.575Z,79.9
2019-02-19T09:27:43.279Z,79.61
2019-02-19T09:28:53.105Z,79.42
2019-02-19T09:30:02.806Z,79.22
2019-02-19T09:31:12.757Z,79.9
2019-02-19T09:32:22.443Z,79.52
2019-02-19T09:33:32.157Z,79.9
2019-02-19T09:34:41.600Z,79.42
2019-02-19T09:35:51.296Z,79.42
2019-02-19T09:37:00.993Z,79.42
2019-02-19T09:38:10.683Z,79.42
2019-02-19T09:39:20.398Z,79.61
2019-02-19T09:40:30.129Z,79.61
2019-02-19T09:41:40.942Z,79.61
2019-02-19T09:42:50.881Z,79.22
2019-02-19T09:44:00.565Z,79.13
2019-02-19T09:45:10.503Z,79.61
2019-02-19T09:46:20.457Z,79.22
2019-02-19T09:47:30.409Z,78.94
2019-02-19T09:48:40.107Z,78.94
2019-02-19T09:49:50.089Z,79.71
2019-02-19T09:51:00.039Z,79.61
2019-02-19T09:52:09.973Z,79.61
2019-02-19T09:53:19.926Z,79.61
2019-02-19T09:54:29.384Z,78.84
2019-02-19T09:55:39.080Z,79.13
2019-02-19T09:56:49.151Z,78.94
2019-02-19T09:57:59.098Z,78.75
2019-02-19T09:59:09.054Z,78.84
2019-02-19T10:00:18.744Z,79.22
2019-02-19T10:01:30.820Z,78.84
2019-02-19T10:02:40.524Z,78.94
2019-02-19T10:03:51.559Z,79.13
2019-02-19T10:05:01.254Z,79.32
2019-02-19T10:06:11.221Z,78.94
2019-02-19T10:07:21.850Z,79.22
2019-02-19T10:08:31.549Z,78.94
2019-02-19T10:09:41.501Z,78.94
2019-02-19T10:10:51.453Z,78.84
2019-02-19T10:12:01.144Z,78.84
2019-02-19T10:13:10.864Z,79.03
2019-02-19T10:14:20.858Z,78.45
2019-02-19T10:15:30.827Z,78.65
2019-02-19T10:16:44.217Z,79.22
2019-02-19T10:17:53.902Z,78.75
2019-02-19T10:19:12.852Z,78.75
2019-02-19T10:20:22.554Z,78.55
2019-02-19T10:21:32.650Z,78.75
2019-02-19T10:22:42.593Z,78.45
2019-02-19T10:23:52.544Z,78.84
2019-02-19T10:25:02.639Z,78.84
2019-02-19T10:26:12.090Z,78.45
2019-02-19T10:27:21.032Z,77.88
2019-02-19T10:28:30.476Z,77.88
2019-02-19T10:29:40.417Z,78.45
2019-02-19T10:30:50.107Z,77.98
2019-02-19T10:31:59.297Z,78.08
2019-02-19T10:33:08.745Z,78.27
2019-02-19T10:34:18.469Z,77.88
2019-02-19T10:35:27.935Z,78.55
2019-02-19T10:36:38.601Z,78.27
2019-02-19T10:37:48.388Z,77.78
2019-02-19T10:38:59.432Z,78.27
2019-02-19T10:40:09.129Z,78.55
2019-02-19T10:41:18.332Z,77.98
2019-02-19T10:42:28.027Z,78.27
2019-02-19T10:43:37.484Z,77.98
2019-02-19T10:44:47.418Z,77.69
2019-02-19T10:45:57.371Z,77.98
2019-02-19T10:47:07.075Z,78.08
2019-02-19T10:48:21.680Z,78.08
2019-02-19T10:49:31.406Z,77.4
2019-02-19T10:50:40.867Z,77.4
2019-02-19T10:51:50.851Z,77.31
2019-02-19T10:53:00.806Z,77.59
2019-02-19T10:54:10.524Z,78.08
2019-02-19T10:55:20.491Z,77.69
2019-02-19T10:56:30.196Z,77.31
2019-02-19T10:57:39.901Z,77.59
2019-02-19T10:58:49.592Z,77.31
2019-02-19T10:59:59.037Z,77.78
2019-02-19T11:01:08.982Z,77.59
2019-02-19T11:02:18.918Z,77.69
2019-02-19T11:03:28.356Z,77.59
2019-02-19T11:04:39.904Z,77.59
2019-02-19T11:05:49.710Z,77.31
2019-02-19T11:06:59.416Z,77.78
2019-02-19T11:08:09.110Z,77.31
2019-02-19T11:09:19.077Z,77.11
2019-02-19T11:10:29.016Z,77.21
2019-02-19T11:11:38.462Z,77.31
2019-02-19T11:12:47.678Z,77.5
2019-02-19T11:13:57.131Z,77.69
2019-02-19T11:15:07.074Z,77.4
2019-02-19T11:16:16.608Z,77.4
2019-02-19T11:17:25.545Z,77.59
2019-02-19T11:18:35.504Z,77.21
2019-02-19T11:19:45.209Z,77.31
2019-02-19T11:20:54.924Z,77.11
2019-02-19T11:22:04.371Z,77.4
2019-02-19T11:23:13.823Z,77.59
2019-02-19T11:24:23.528Z,77.4
2019-02-19T11:25:32.971Z,77.69
2019-02-19T11:26:42.652Z,77.4
2019-02-19T11:27:52.593Z,77.69
2019-02-19T11:29:02.274Z,77.69
2019-02-19T11:30:11.718Z,77.21
2019-02-19T11:31:23.381Z,77.4
2019-02-19T11:32:32.826Z,77.21
2019-02-19T11:33:42.821Z,76.82
2019-02-19T11:34:52.767Z,76.92
2019-02-19T11:36:02.466Z,76.92
2019-02-19T11:37:12.212Z,77.01
2019-02-19T11:38:21.941Z,76.64
2019-02-19T11:39:31.882Z,76.73
2019-02-19T11:40:41.581Z,77.11
2019-02-19T11:41:51.518Z,76.92
2019-02-19T11:43:01.206Z,77.11
2019-02-19T11:44:10.404Z,76.82
2019-02-19T11:45:20.101Z,77.01
2019-02-19T11:46:29.799Z,77.21
2019-02-19T11:47:39.238Z,77.01
2019-02-19T11:48:49.193Z,76.92
2019-02-19T11:49:59.170Z,77.21
2019-02-19T11:51:08.614Z,76.44
2019-02-19T11:52:18.094Z,76.64
2019-02-19T11:53:28.058Z,77.11
2019-02-19T11:54:37.992Z,76.73
2019-02-19T11:55:47.676Z,76.82
2019-02-19T11:56:57.363Z,76.92
2019-02-19T11:58:07.304Z,76.73
2019-02-19T11:59:17.008Z,76.64
2019-02-19T12:00:26.474Z,76.64
2019-02-19T12:01:35.914Z,76.92
2019-02-19T12:02:45.621Z,76.92
2019-02-19T12:03:54.826Z,76.73
2019-02-19T12:05:04.533Z,76.64
2019-02-19T12:06:14.663Z,76.54
2019-02-19T12:07:24.350Z,76.54
2019-02-19T12:08:41.478Z,76.54
2019-02-19T12:09:51.436Z,76.44
2019-02-19T12:11:00.870Z,76.25
2019-02-19T12:12:10.844Z,76.44
2019-02-19T12:13:20.536Z,76.82
2019-02-19T12:14:30.229Z,76.64
2019-02-19T12:15:39.933Z,76.54
2019-02-19T12:16:49.867Z,76.44
2019-02-19T12:17:59.831Z,76.54
2019-02-19T12:19:09.553Z,76.64
2019-02-19T12:20:19.246Z,76.29
2019-02-19T12:21:29.197Z,76.25
2019-02-19T12:22:39.151Z,76.54
2019-02-19T12:23:48.863Z,76.54
2019-02-19T12:24:58.063Z,76.44
2019-02-19T12:26:08.018Z,76.19
2019-02-19T12:27:17.742Z,76.92
2019-02-19T12:28:27.241Z,77.06
2019-02-19T12:29:36.751Z,77.73
2019-02-19T12:30:46.267Z,77.44
2019-02-19T12:31:55.785Z,77.63
2019-02-19T12:33:05.742Z,77.44
2019-02-19T12:34:15.423Z,77.83
2019-02-19T12:35:25.132Z,77.44
2019-02-19T12:36:35.100Z,77.25
2019-02-19T12:37:45.035Z,76.86
2019-02-19T12:38:54.475Z,76.96
2019-02-19T12:40:03.915Z,77.25
2019-02-19T12:41:13.861Z,77.19
2019-02-19T12:42:23.553Z,77.19
2019-02-19T12:43:33.240Z,76.32
2019-02-19T12:44:43.186Z,76.9
2019-02-19T12:45:51.872Z,76.71
2019-02-19T12:47:01.560Z,76.71
2019-02-19T12:48:11.007Z,76.52
2019-02-19T12:49:20.727Z,76.52
2019-02-19T12:50:30.669Z,76.14
2019-02-19T12:51:40.123Z,76.04
2019-02-19T12:52:50.068Z,76.23
2019-02-19T12:54:00.012Z,76.32
2019-02-19T12:55:09.967Z,76.61
2019-02-19T12:56:19.659Z,76.71
2019-02-19T12:57:29.096Z,76.61
2019-02-19T12:58:39.525Z,76.61
2019-02-19T12:59:56.357Z,76.36
2019-02-19T13:01:06.357Z,76.23
2019-02-19T13:02:16.303Z,76.07
2019-02-19T13:03:27.389Z,76.23
2019-02-19T13:04:37.147Z,75.59
2019-02-19T13:05:47.113Z,75.56
2019-02-19T13:06:57.061Z,75.56
2019-02-19T13:08:06.764Z,75.65
2019-02-19T13:09:16.699Z,75.56
2019-02-19T13:10:26.394Z,75.65
2019-02-19T13:11:36.342Z,75.65
2019-02-19T13:12:46.076Z,75.46
2019-02-19T13:13:56.512Z,75.75
2019-02-19T13:15:06.469Z,75.56
2019-02-19T13:16:16.211Z,75.27
2019-02-19T13:17:25.958Z,75.46
2019-02-19T13:18:35.148Z,75.07
2019-02-19T13:19:44.843Z,75.17
2019-02-19T13:20:54.777Z,75.37
2019-02-19T13:22:04.486Z,75.07
2019-02-19T13:23:14.435Z,74.88
2019-02-19T13:24:24.384Z,74.79
2019-02-19T13:25:34.100Z,75.17
2019-02-19T13:26:43.801Z,74.98
2019-02-19T13:27:53.508Z,75.17
2019-02-19T13:29:03.202Z,74.6
2019-02-19T13:30:13.141Z,74.88
2019-02-19T13:31:23.109Z,74.69
2019-02-19T13:32:33.055Z,74.79
2019-02-19T13:33:42.742Z,74.6
2019-02-19T13:34:52.187Z,74.98
2019-02-19T13:36:01.879Z,74.3
2019-02-19T13:37:11.578Z,74.79
2019-02-19T13:38:21.023Z,74.21
2019-02-19T13:39:30.960Z,74.6
2019-02-19T13:40:40.408Z,74.5
2019-02-19T13:41:50.106Z,74.88
2019-02-19T13:43:00.044Z,74.21
2019-02-19T13:44:09.745Z,74.5
2019-02-19T13:45:19.442Z,73.83
2019-02-19T13:46:29.396Z,74.11
2019-02-19T13:47:39.126Z,74.6
2019-02-19T13:48:48.832Z,74.11
2019-02-19T13:49:58.262Z,74.4
2019-02-19T13:51:07.949Z,74.02
2019-02-19T13:52:25.110Z,74.3
2019-02-19T13:53:35.040Z,74.4
2019-02-19T13:54:44.476Z,74.4
2019-02-19T13:55:54.237Z,73.92
2019-02-19T13:57:03.945Z,74.11
2019-02-19T13:58:13.379Z,73.92
2019-02-19T13:59:23.085Z,73.92
2019-02-19T14:00:32.797Z,74.11
2019-02-19T14:01:42.496Z,73.83
2019-02-19T14:02:52.444Z,73.63
2019-02-19T14:04:02.391Z,73.92
2019-02-19T14:05:11.840Z,74.11
2019-02-19T14:06:21.783Z,73.63
2019-02-19T14:07:31.019Z,73.73
2019-02-19T14:08:40.967Z,73.83
2019-02-19T14:09:50.669Z,73.63
2019-02-19T14:11:00.384Z,74.11
2019-02-19T14:12:10.094Z,73.73
2019-02-19T14:13:19.541Z,73.63
2019-02-19T14:14:28.996Z,73.63
2019-02-19T14:15:38.935Z,73.73
2019-02-19T14:16:48.876Z,73.83
2019-02-19T14:17:59.552Z,73.63
2019-02-19T14:19:09.505Z,73.83
2019-02-19T14:20:26.565Z,73.83
2019-02-19T14:21:36.007Z,73.63
2019-02-19T14:22:45.699Z,73.83
2019-02-19T14:23:55.147Z,73.44
2019-02-19T14:25:04.595Z,73.44
2019-02-19T14:26:14.528Z,73.63
2019-02-19T14:27:24.467Z,73.73
2019-02-19T14:28:34.497Z,73.73
2019-02-19T14:29:44.439Z,73.44
2019-02-19T14:30:53.373Z,73.54
2019-02-19T14:32:02.823Z,73.35
2019-02-19T14:33:12.513Z,73.35
2019-02-19T14:34:21.994Z,73.35
2019-02-19T14:35:31.519Z,73.63
2019-02-19T14:36:41.459Z,73.54
2019-02-19T14:37:51.420Z,73.35
2019-02-19T14:39:01.384Z,73.25
2019-02-19T14:40:13.028Z,73.25
2019-02-19T14:41:22.497Z,73.15
2019-02-19T14:42:32.182Z,73.15
2019-02-19T14:43:41.886Z,73.25
2019-02-19T14:44:51.586Z,73.35
2019-02-19T14:46:01.268Z,73.25
2019-02-19T14:47:11.229Z,73.25
2019-02-19T14:48:20.932Z,73.25
2019-02-19T14:49:47.127Z,73.25
2019-02-19T14:50:57.386Z,73.15
2019-02-19T14:52:07.122Z,73.25
2019-02-19T14:53:17.072Z,73.25
2019-02-19T14:54:26.780Z,73.15
2019-02-19T14:55:36.467Z,73.25
2019-02-19T14:56:46.436Z,73.25
2019-02-19T14:57:55.895Z,73.15
2019-02-19T14:59:05.407Z,73.06
2019-02-19T15:00:15.392Z,73.15
2019-02-19T15:01:25.091Z,73.15
2019-02-19T15:02:35.245Z,73.63
2019-02-19T15:03:45.153Z,73.06
2019-02-19T15:04:55.129Z,73.25